sensor_id;sensor_type;location;lat;lon;timestamp;temperature;humidity
37786;DHT22;23625;48.784;9.336;2023-04-03T00:01:04;4.20;99.90
37786;DHT22;23625;48.784;9.336;2023-04-03T00:03:30;4.20;99.90
37786;DHT22;23625;48.784;9.336;2023-04-03T00:05:56;4.20;99.90
37786;DHT22;23625;48.784;9.336;2023-04-03T00:08:22;4.10;99.90
37786;DHT22;23625;48.784;9.336;2023-04-03T00:10:47;4.10;99.90
37786;DHT22;23625;48.784;9.336;2023-04-03T00:13:13;4.10;99.90
37786;DHT22;23625;48.784;9.336;2023-04-03T00:15:39;4.10;99.90
37786;DHT22;23625;48.784;9.336;2023-04-03T00:18:05;4.00;99.90
37786;DHT22;23625;48.784;9.336;2023-04-03T00:20:32;4.00;99.90
37786;DHT22;23625;48.784;9.336;2023-04-03T00:22:58;4.00;99.90
37786;DHT22;23625;48.784;9.336;2023-04-03T00:25:24;4.00;99.90
37786;DHT22;23625;48.784;9.336;2023-04-03T00:27:49;4.00;99.90
37786;DHT22;23625;48.784;9.336;2023-04-03T00:30:17;4.00;99.90
37786;DHT22;23625;48.784;9.336;2023-04-03T00:32:43;4.00;99.90
37786;DHT22;23625;48.784;9.336;2023-04-03T00:35:09;4.00;99.90
37786;DHT22;23625;48.784;9.336;2023-04-03T00:37:35;4.00;99.90
37786;DHT22;23625;48.784;9.336;2023-04-03T00:40:01;4.00;99.90
37786;DHT22;23625;48.784;9.336;2023-04-03T00:42:27;4.00;99.90
37786;DHT22;23625;48.784;9.336;2023-04-03T00:47:21;3.90;99.90
37786;DHT22;23625;48.784;9.336;2023-04-03T00:49:48;3.90;99.90
37786;DHT22;23625;48.784;9.336;2023-04-03T00:52:17;3.90;99.90
37786;DHT22;23625;48.784;9.336;2023-04-03T00:54:46;3.90;99.90
37786;DHT22;23625;48.784;9.336;2023-04-03T00:57:13;3.90;99.90
37786;DHT22;23625;48.784;9.336;2023-04-03T00:59:45;3.90;99.90
37786;DHT22;23625;48.784;9.336;2023-04-03T01:02:11;3.90;99.90
37786;DHT22;23625;48.784;9.336;2023-04-03T01:04:39;3.90;99.90
37786;DHT22;23625;48.784;9.336;2023-04-03T01:07:11;3.90;99.90
37786;DHT22;23625;48.784;9.336;2023-04-03T01:09:38;3.90;99.90
37786;DHT22;23625;48.784;9.336;2023-04-03T01:14:52;3.80;99.90
37786;DHT22;23625;48.784;9.336;2023-04-03T01:22:59;3.80;99.90
37786;DHT22;23625;48.784;9.336;2023-04-03T01:25:31;3.70;99.90
37786;DHT22;23625;48.784;9.336;2023-04-03T01:27:57;3.70;99.90
37786;DHT22;23625;48.784;9.336;2023-04-03T01:30:28;3.70;99.90
37786;DHT22;23625;48.784;9.336;2023-04-03T01:32:55;3.70;99.90
37786;DHT22;23625;48.784;9.336;2023-04-03T01:35:21;3.70;99.90
37786;DHT22;23625;48.784;9.336;2023-04-03T01:37:46;3.70;99.90
37786;DHT22;23625;48.784;9.336;2023-04-03T01:40:12;3.70;99.90
37786;DHT22;23625;48.784;9.336;2023-04-03T01:42:37;3.60;99.90
37786;DHT22;23625;48.784;9.336;2023-04-03T01:45:03;3.60;99.90
37786;DHT22;23625;48.784;9.336;2023-04-03T01:47:29;3.60;99.90
37786;DHT22;23625;48.784;9.336;2023-04-03T01:49:54;3.60;99.90
37786;DHT22;23625;48.784;9.336;2023-04-03T01:52:20;3.60;99.90
37786;DHT22;23625;48.784;9.336;2023-04-03T01:54:46;3.60;99.90
37786;DHT22;23625;48.784;9.336;2023-04-03T01:57:11;3.60;99.90
37786;DHT22;23625;48.784;9.336;2023-04-03T01:59:38;3.60;99.90
37786;DHT22;23625;48.784;9.336;2023-04-03T02:02:04;3.60;99.90
37786;DHT22;23625;48.784;9.336;2023-04-03T02:04:30;3.60;99.90
37786;DHT22;23625;48.784;9.336;2023-04-03T02:06:56;3.50;99.90
37786;DHT22;23625;48.784;9.336;2023-04-03T02:09:21;3.50;99.90
37786;DHT22;23625;48.784;9.336;2023-04-03T02:11:47;3.50;99.90
37786;DHT22;23625;48.784;9.336;2023-04-03T02:14:12;3.50;99.90
37786;DHT22;23625;48.784;9.336;2023-04-03T02:16:38;3.50;99.90
37786;DHT22;23625;48.784;9.336;2023-04-03T02:19:04;3.40;99.90
37786;DHT22;23625;48.784;9.336;2023-04-03T02:21:29;3.40;99.90
37786;DHT22;23625;48.784;9.336;2023-04-03T02:23:55;3.40;99.90
37786;DHT22;23625;48.784;9.336;2023-04-03T02:26:20;3.40;99.90
37786;DHT22;23625;48.784;9.336;2023-04-03T02:28:46;3.40;99.90
37786;DHT22;23625;48.784;9.336;2023-04-03T02:31:12;3.40;99.90
37786;DHT22;23625;48.784;9.336;2023-04-03T02:33:38;3.40;99.90
37786;DHT22;23625;48.784;9.336;2023-04-03T02:36:05;3.40;99.90
37786;DHT22;23625;48.784;9.336;2023-04-03T02:38:31;3.40;99.90
37786;DHT22;23625;48.784;9.336;2023-04-03T02:41:05;3.40;99.90
37786;DHT22;23625;48.784;9.336;2023-04-03T02:43:31;3.50;99.90
37786;DHT22;23625;48.784;9.336;2023-04-03T02:45:57;3.50;99.90
37786;DHT22;23625;48.784;9.336;2023-04-03T02:48:24;3.40;99.90
37786;DHT22;23625;48.784;9.336;2023-04-03T02:50:50;3.50;99.90
37786;DHT22;23625;48.784;9.336;2023-04-03T02:53:16;3.50;99.90
37786;DHT22;23625;48.784;9.336;2023-04-03T02:55:42;3.60;99.90
37786;DHT22;23625;48.784;9.336;2023-04-03T02:58:07;3.50;99.90
37786;DHT22;23625;48.784;9.336;2023-04-03T03:00:33;3.60;99.90
37786;DHT22;23625;48.784;9.336;2023-04-03T03:02:59;3.60;99.90
37786;DHT22;23625;48.784;9.336;2023-04-03T03:05:26;3.60;99.90
37786;DHT22;23625;48.784;9.336;2023-04-03T03:07:51;3.70;99.90
37786;DHT22;23625;48.784;9.336;2023-04-03T03:10:17;3.70;99.90
37786;DHT22;23625;48.784;9.336;2023-04-03T03:12:43;3.70;99.90
37786;DHT22;23625;48.784;9.336;2023-04-03T03:15:09;3.80;99.90
37786;DHT22;23625;48.784;9.336;2023-04-03T03:17:34;3.70;99.90
37786;DHT22;23625;48.784;9.336;2023-04-03T03:20:02;3.70;99.90
37786;DHT22;23625;48.784;9.336;2023-04-03T03:22:28;3.70;99.90
37786;DHT22;23625;48.784;9.336;2023-04-03T03:24:53;3.70;99.90
37786;DHT22;23625;48.784;9.336;2023-04-03T03:27:20;3.70;99.90
37786;DHT22;23625;48.784;9.336;2023-04-03T03:29:46;3.70;99.90
37786;DHT22;23625;48.784;9.336;2023-04-03T03:32:11;3.70;99.90
37786;DHT22;23625;48.784;9.336;2023-04-03T03:34:37;3.60;99.90
37786;DHT22;23625;48.784;9.336;2023-04-03T03:37:03;3.60;99.90
37786;DHT22;23625;48.784;9.336;2023-04-03T03:39:28;3.70;99.90
37786;DHT22;23625;48.784;9.336;2023-04-03T03:41:54;3.70;99.90
37786;DHT22;23625;48.784;9.336;2023-04-03T03:44:20;3.70;99.90
37786;DHT22;23625;48.784;9.336;2023-04-03T03:46:46;3.70;99.90
37786;DHT22;23625;48.784;9.336;2023-04-03T03:49:11;3.70;99.90
37786;DHT22;23625;48.784;9.336;2023-04-03T03:51:38;3.70;99.90
37786;DHT22;23625;48.784;9.336;2023-04-03T03:54:04;3.70;99.90
37786;DHT22;23625;48.784;9.336;2023-04-03T03:56:30;3.90;99.90
37786;DHT22;23625;48.784;9.336;2023-04-03T03:58:56;3.70;99.90
37786;DHT22;23625;48.784;9.336;2023-04-03T04:01:23;3.70;99.90
37786;DHT22;23625;48.784;9.336;2023-04-03T04:03:49;3.70;99.90
37786;DHT22;23625;48.784;9.336;2023-04-03T04:06:15;3.80;99.90
37786;DHT22;23625;48.784;9.336;2023-04-03T04:08:40;3.80;99.90
37786;DHT22;23625;48.784;9.336;2023-04-03T04:11:06;3.80;99.90
37786;DHT22;23625;48.784;9.336;2023-04-03T04:13:32;3.80;99.90
37786;DHT22;23625;48.784;9.336;2023-04-03T04:16:00;3.80;99.90
37786;DHT22;23625;48.784;9.336;2023-04-03T04:18:26;3.80;99.90
37786;DHT22;23625;48.784;9.336;2023-04-03T04:20:51;3.80;99.90
37786;DHT22;23625;48.784;9.336;2023-04-03T04:23:18;3.80;99.90
37786;DHT22;23625;48.784;9.336;2023-04-03T04:25:45;3.90;99.90
37786;DHT22;23625;48.784;9.336;2023-04-03T04:28:11;3.90;99.90
37786;DHT22;23625;48.784;9.336;2023-04-03T04:30:37;3.90;99.90
37786;DHT22;23625;48.784;9.336;2023-04-03T04:33:03;3.90;99.90
37786;DHT22;23625;48.784;9.336;2023-04-03T04:35:28;3.80;99.90
37786;DHT22;23625;48.784;9.336;2023-04-03T04:37:54;3.90;99.90
37786;DHT22;23625;48.784;9.336;2023-04-03T04:40:20;3.90;99.90
37786;DHT22;23625;48.784;9.336;2023-04-03T04:42:46;3.90;99.90
37786;DHT22;23625;48.784;9.336;2023-04-03T04:45:12;3.90;99.90
37786;DHT22;23625;48.784;9.336;2023-04-03T04:47:37;3.90;99.90
37786;DHT22;23625;48.784;9.336;2023-04-03T04:50:03;4.10;99.90
37786;DHT22;23625;48.784;9.336;2023-04-03T04:52:29;4.00;99.90
37786;DHT22;23625;48.784;9.336;2023-04-03T04:54:55;3.90;99.90
37786;DHT22;23625;48.784;9.336;2023-04-03T04:57:20;3.90;99.90
37786;DHT22;23625;48.784;9.336;2023-04-03T04:59:46;3.90;99.90
37786;DHT22;23625;48.784;9.336;2023-04-03T05:02:12;4.00;99.90
37786;DHT22;23625;48.784;9.336;2023-04-03T05:04:38;3.90;99.90
37786;DHT22;23625;48.784;9.336;2023-04-03T05:07:04;3.90;99.90
37786;DHT22;23625;48.784;9.336;2023-04-03T05:09:29;3.90;99.90
37786;DHT22;23625;48.784;9.336;2023-04-03T05:11:55;3.90;99.90
37786;DHT22;23625;48.784;9.336;2023-04-03T05:14:21;3.90;99.90
37786;DHT22;23625;48.784;9.336;2023-04-03T05:16:47;3.90;99.90
37786;DHT22;23625;48.784;9.336;2023-04-03T05:19:13;3.80;99.90
37786;DHT22;23625;48.784;9.336;2023-04-03T05:21:38;3.90;99.90
37786;DHT22;23625;48.784;9.336;2023-04-03T05:24:04;3.90;99.90
37786;DHT22;23625;48.784;9.336;2023-04-03T05:26:31;3.90;99.90
37786;DHT22;23625;48.784;9.336;2023-04-03T05:28:57;3.90;99.90
37786;DHT22;23625;48.784;9.336;2023-04-03T05:31:22;3.90;99.90
37786;DHT22;23625;48.784;9.336;2023-04-03T05:33:48;4.00;99.90
37786;DHT22;23625;48.784;9.336;2023-04-03T05:36:14;4.00;99.90
37786;DHT22;23625;48.784;9.336;2023-04-03T05:38:40;3.90;97.20
37786;DHT22;23625;48.784;9.336;2023-04-03T05:41:05;3.90;97.70
37786;DHT22;23625;48.784;9.336;2023-04-03T05:43:31;4.00;97.00
37786;DHT22;23625;48.784;9.336;2023-04-03T05:45:57;3.90;97.60
37786;DHT22;23625;48.784;9.336;2023-04-03T05:48:22;3.90;97.30
37786;DHT22;23625;48.784;9.336;2023-04-03T05:50:48;3.90;98.10
37786;DHT22;23625;48.784;9.336;2023-04-03T05:53:21;3.90;97.10
37786;DHT22;23625;48.784;9.336;2023-04-03T05:55:47;4.00;96.00
37786;DHT22;23625;48.784;9.336;2023-04-03T05:58:12;4.00;96.80
37786;DHT22;23625;48.784;9.336;2023-04-03T06:00:38;4.00;97.50
37786;DHT22;23625;48.784;9.336;2023-04-03T06:03:04;4.10;97.50
37786;DHT22;23625;48.784;9.336;2023-04-03T06:05:30;4.00;97.10
37786;DHT22;23625;48.784;9.336;2023-04-03T06:07:56;4.00;96.80
37786;DHT22;23625;48.784;9.336;2023-04-03T06:10:22;4.10;96.70
37786;DHT22;23625;48.784;9.336;2023-04-03T06:12:48;4.10;96.40
37786;DHT22;23625;48.784;9.336;2023-04-03T06:15:13;4.20;96.80
37786;DHT22;23625;48.784;9.336;2023-04-03T06:17:40;4.20;97.30
37786;DHT22;23625;48.784;9.336;2023-04-03T06:20:07;4.30;96.90
37786;DHT22;23625;48.784;9.336;2023-04-03T06:22:33;4.30;95.40
37786;DHT22;23625;48.784;9.336;2023-04-03T06:24:58;4.30;96.10
37786;DHT22;23625;48.784;9.336;2023-04-03T06:27:24;4.30;95.60
37786;DHT22;23625;48.784;9.336;2023-04-03T06:29:49;4.30;97.30
37786;DHT22;23625;48.784;9.336;2023-04-03T06:32:16;4.40;96.50
37786;DHT22;23625;48.784;9.336;2023-04-03T06:34:42;4.40;96.70
37786;DHT22;23625;48.784;9.336;2023-04-03T06:37:22;4.40;96.70
37786;DHT22;23625;48.784;9.336;2023-04-03T06:39:49;4.40;96.20
37786;DHT22;23625;48.784;9.336;2023-04-03T06:42:14;4.40;95.90
37786;DHT22;23625;48.784;9.336;2023-04-03T06:44:40;4.40;95.40
37786;DHT22;23625;48.784;9.336;2023-04-03T06:47:06;4.40;96.00
37786;DHT22;23625;48.784;9.336;2023-04-03T06:49:31;4.40;96.20
37786;DHT22;23625;48.784;9.336;2023-04-03T06:51:57;4.50;96.70
37786;DHT22;23625;48.784;9.336;2023-04-03T06:54:23;4.50;96.90
37786;DHT22;23625;48.784;9.336;2023-04-03T06:56:48;4.50;98.00
37786;DHT22;23625;48.784;9.336;2023-04-03T06:59:14;4.50;96.30
37786;DHT22;23625;48.784;9.336;2023-04-03T07:01:40;4.60;96.40
37786;DHT22;23625;48.784;9.336;2023-04-03T07:04:06;4.60;95.90
37786;DHT22;23625;48.784;9.336;2023-04-03T07:06:32;4.60;97.00
37786;DHT22;23625;48.784;9.336;2023-04-03T07:08:59;4.60;96.70
37786;DHT22;23625;48.784;9.336;2023-04-03T07:11:25;4.70;96.90
37786;DHT22;23625;48.784;9.336;2023-04-03T07:13:52;4.80;95.10
37786;DHT22;23625;48.784;9.336;2023-04-03T07:16:18;4.80;96.40
37786;DHT22;23625;48.784;9.336;2023-04-03T07:18:44;4.80;95.10
37786;DHT22;23625;48.784;9.336;2023-04-03T07:21:10;4.90;95.60
37786;DHT22;23625;48.784;9.336;2023-04-03T07:23:36;4.90;95.10
37786;DHT22;23625;48.784;9.336;2023-04-03T07:26:02;4.90;95.00
37786;DHT22;23625;48.784;9.336;2023-04-03T07:28:28;4.90;94.60
37786;DHT22;23625;48.784;9.336;2023-04-03T07:31:04;4.90;95.40
37786;DHT22;23625;48.784;9.336;2023-04-03T07:33:32;5.00;95.00
37786;DHT22;23625;48.784;9.336;2023-04-03T07:35:59;5.10;94.50
37786;DHT22;23625;48.784;9.336;2023-04-03T07:38:25;5.20;95.10
37786;DHT22;23625;48.784;9.336;2023-04-03T07:40:51;5.20;93.40
37786;DHT22;23625;48.784;9.336;2023-04-03T07:43:18;5.20;93.40
37786;DHT22;23625;48.784;9.336;2023-04-03T07:45:45;5.30;94.80
37786;DHT22;23625;48.784;9.336;2023-04-03T07:48:13;5.90;94.50
37786;DHT22;23625;48.784;9.336;2023-04-03T07:50:41;5.40;93.60
37786;DHT22;23625;48.784;9.336;2023-04-03T07:53:08;5.50;93.10
37786;DHT22;23625;48.784;9.336;2023-04-03T07:55:34;5.40;92.20
37786;DHT22;23625;48.784;9.336;2023-04-03T07:58:02;5.40;93.20
37786;DHT22;23625;48.784;9.336;2023-04-03T08:00:28;5.50;92.00
37786;DHT22;23625;48.784;9.336;2023-04-03T08:02:54;5.50;94.40
37786;DHT22;23625;48.784;9.336;2023-04-03T08:05:21;5.70;94.30
37786;DHT22;23625;48.784;9.336;2023-04-03T08:07:47;5.80;93.70
37786;DHT22;23625;48.784;9.336;2023-04-03T08:10:14;5.90;92.20
37786;DHT22;23625;48.784;9.336;2023-04-03T08:12:40;6.00;92.20
37786;DHT22;23625;48.784;9.336;2023-04-03T08:15:06;6.00;91.30
37786;DHT22;23625;48.784;9.336;2023-04-03T08:17:33;6.00;90.40
37786;DHT22;23625;48.784;9.336;2023-04-03T08:19:59;6.00;90.50
37786;DHT22;23625;48.784;9.336;2023-04-03T08:22:24;6.10;91.40
37786;DHT22;23625;48.784;9.336;2023-04-03T08:24:50;6.20;90.30
37786;DHT22;23625;48.784;9.336;2023-04-03T08:27:16;6.30;88.70
37786;DHT22;23625;48.784;9.336;2023-04-03T08:29:41;6.30;90.10
37786;DHT22;23625;48.784;9.336;2023-04-03T08:32:07;6.30;88.50
37786;DHT22;23625;48.784;9.336;2023-04-03T08:34:32;6.30;86.30
37786;DHT22;23625;48.784;9.336;2023-04-03T08:37:02;6.40;86.40
37786;DHT22;23625;48.784;9.336;2023-04-03T08:39:28;6.50;85.20
37786;DHT22;23625;48.784;9.336;2023-04-03T08:41:55;6.50;84.10
37786;DHT22;23625;48.784;9.336;2023-04-03T08:49:59;6.60;84.70
37786;DHT22;23625;48.784;9.336;2023-04-03T08:52:45;6.70;83.70
37786;DHT22;23625;48.784;9.336;2023-04-03T08:55:31;6.70;80.40
37786;DHT22;23625;48.784;9.336;2023-04-03T08:58:04;6.70;82.00
37786;DHT22;23625;48.784;9.336;2023-04-03T09:00:41;6.50;82.10
37786;DHT22;23625;48.784;9.336;2023-04-03T09:03:13;6.80;82.50
37786;DHT22;23625;48.784;9.336;2023-04-03T09:05:53;7.00;82.90
37786;DHT22;23625;48.784;9.336;2023-04-03T09:08:27;7.10;81.90
37786;DHT22;23625;48.784;9.336;2023-04-03T09:11:14;7.10;81.20
37786;DHT22;23625;48.784;9.336;2023-04-03T09:16:27;6.90;80.10
37786;DHT22;23625;48.784;9.336;2023-04-03T09:19:02;6.80;81.60
37786;DHT22;23625;48.784;9.336;2023-04-03T09:21:38;6.90;82.60
37786;DHT22;23625;48.784;9.336;2023-04-03T09:24:10;6.90;83.00
37786;DHT22;23625;48.784;9.336;2023-04-03T09:26:42;7.00;81.10
37786;DHT22;23625;48.784;9.336;2023-04-03T09:29:15;7.10;81.20
37786;DHT22;23625;48.784;9.336;2023-04-03T09:31:44;7.10;79.90
37786;DHT22;23625;48.784;9.336;2023-04-03T09:34:21;7.00;77.20
37786;DHT22;23625;48.784;9.336;2023-04-03T09:36:54;7.00;75.00
37786;DHT22;23625;48.784;9.336;2023-04-03T09:39:22;7.00;74.40
37786;DHT22;23625;48.784;9.336;2023-04-03T09:42:11;7.10;74.90
37786;DHT22;23625;48.784;9.336;2023-04-03T09:44:41;7.00;74.20
37786;DHT22;23625;48.784;9.336;2023-04-03T09:49:48;6.80;75.20
37786;DHT22;23625;48.784;9.336;2023-04-03T09:52:25;6.80;74.70
37786;DHT22;23625;48.784;9.336;2023-04-03T09:54:51;6.80;74.90
37786;DHT22;23625;48.784;9.336;2023-04-03T09:57:17;6.70;74.50
37786;DHT22;23625;48.784;9.336;2023-04-03T10:00:04;6.70;74.90
37786;DHT22;23625;48.784;9.336;2023-04-03T10:02:37;6.80;75.00
37786;DHT22;23625;48.784;9.336;2023-04-03T10:05:31;6.80;73.20
37786;DHT22;23625;48.784;9.336;2023-04-03T10:10:44;6.90;73.10
37786;DHT22;23625;48.784;9.336;2023-04-03T10:13:13;7.00;73.50
37786;DHT22;23625;48.784;9.336;2023-04-03T10:15:45;6.90;72.80
37786;DHT22;23625;48.784;9.336;2023-04-03T10:18:29;6.80;73.80
37786;DHT22;23625;48.784;9.336;2023-04-03T10:21:06;6.80;73.30
37786;DHT22;23625;48.784;9.336;2023-04-03T10:23:45;6.80;72.90
37786;DHT22;23625;48.784;9.336;2023-04-03T10:26:18;6.80;73.20
37786;DHT22;23625;48.784;9.336;2023-04-03T10:32:25;6.90;73.90
37786;DHT22;23625;48.784;9.336;2023-04-03T10:43:04;7.00;72.00
37786;DHT22;23625;48.784;9.336;2023-04-03T10:45:36;7.00;71.90
37786;DHT22;23625;48.784;9.336;2023-04-03T10:50:43;7.00;71.90
37786;DHT22;23625;48.784;9.336;2023-04-03T10:53:31;7.00;71.40
37786;DHT22;23625;48.784;9.336;2023-04-03T10:58:52;7.10;70.40
37786;DHT22;23625;48.784;9.336;2023-04-03T11:01:26;7.20;69.80
37786;DHT22;23625;48.784;9.336;2023-04-03T11:03:58;7.20;69.40
37786;DHT22;23625;48.784;9.336;2023-04-03T11:06:26;7.10;69.20
37786;DHT22;23625;48.784;9.336;2023-04-03T11:09:03;7.20;68.20
37786;DHT22;23625;48.784;9.336;2023-04-03T11:11:37;7.10;66.10
37786;DHT22;23625;48.784;9.336;2023-04-03T11:17:05;7.00;62.50
37786;DHT22;23625;48.784;9.336;2023-04-03T11:22:13;7.10;63.30
37786;DHT22;23625;48.784;9.336;2023-04-03T11:24:42;7.20;62.60
37786;DHT22;23625;48.784;9.336;2023-04-03T11:27:17;7.30;61.70
37786;DHT22;23625;48.784;9.336;2023-04-03T11:29:45;7.30;61.30
37786;DHT22;23625;48.784;9.336;2023-04-03T11:32:29;7.40;62.10
37786;DHT22;23625;48.784;9.336;2023-04-03T11:35:01;7.30;61.70
37786;DHT22;23625;48.784;9.336;2023-04-03T11:37:43;7.40;62.10
37786;DHT22;23625;48.784;9.336;2023-04-03T11:42:46;7.40;61.40
37786;DHT22;23625;48.784;9.336;2023-04-03T11:50:46;7.40;61.30
37786;DHT22;23625;48.784;9.336;2023-04-03T11:55:46;7.20;61.20
37786;DHT22;23625;48.784;9.336;2023-04-03T12:01:00;7.20;61.20
37786;DHT22;23625;48.784;9.336;2023-04-03T12:08:46;7.20;60.90
37786;DHT22;23625;48.784;9.336;2023-04-03T12:14:01;7.30;61.30
37786;DHT22;23625;48.784;9.336;2023-04-03T12:32:09;7.40;62.90
37786;DHT22;23625;48.784;9.336;2023-04-03T12:48:58;8.00;59.40
37786;DHT22;23625;48.784;9.336;2023-04-03T12:51:44;8.20;58.30
37786;DHT22;23625;48.784;9.336;2023-04-03T12:54:18;8.60;58.20
37786;DHT22;23625;48.784;9.336;2023-04-03T12:56:45;8.60;58.60
37786;DHT22;23625;48.784;9.336;2023-04-03T12:59:22;8.50;59.00
37786;DHT22;23625;48.784;9.336;2023-04-03T13:01:56;8.40;59.00
37786;DHT22;23625;48.784;9.336;2023-04-03T13:04:22;8.40;58.60
37786;DHT22;23625;48.784;9.336;2023-04-03T13:06:48;8.20;58.20
37786;DHT22;23625;48.784;9.336;2023-04-03T13:11:47;8.00;59.20
37786;DHT22;23625;48.784;9.336;2023-04-03T13:14:19;7.90;59.70
37786;DHT22;23625;48.784;9.336;2023-04-03T13:17:00;8.00;59.80
37786;DHT22;23625;48.784;9.336;2023-04-03T13:19:28;8.00;59.20
37786;DHT22;23625;48.784;9.336;2023-04-03T13:22:07;8.10;58.80
37786;DHT22;23625;48.784;9.336;2023-04-03T13:24:37;8.60;58.00
37786;DHT22;23625;48.784;9.336;2023-04-03T13:27:04;8.80;56.80
37786;DHT22;23625;48.784;9.336;2023-04-03T13:29:35;8.80;56.30
37786;DHT22;23625;48.784;9.336;2023-04-03T13:32:03;8.90;56.00
37786;DHT22;23625;48.784;9.336;2023-04-03T13:34:40;8.80;54.70
37786;DHT22;23625;48.784;9.336;2023-04-03T13:37:11;8.80;54.70
37786;DHT22;23625;48.784;9.336;2023-04-03T13:39:44;8.80;54.90
37786;DHT22;23625;48.784;9.336;2023-04-03T13:42:23;9.10;54.90
37786;DHT22;23625;48.784;9.336;2023-04-03T13:44:49;9.30;53.80
37786;DHT22;23625;48.784;9.336;2023-04-03T13:47:21;9.10;53.10
37786;DHT22;23625;48.784;9.336;2023-04-03T13:52:53;8.80;53.50
37786;DHT22;23625;48.784;9.336;2023-04-03T13:55:23;8.70;54.30
37786;DHT22;23625;48.784;9.336;2023-04-03T14:00:38;8.40;55.40
37786;DHT22;23625;48.784;9.336;2023-04-03T14:03:29;8.40;56.30
37786;DHT22;23625;48.784;9.336;2023-04-03T14:05:56;8.40;56.20
37786;DHT22;23625;48.784;9.336;2023-04-03T14:08:22;8.40;56.00
37786;DHT22;23625;48.784;9.336;2023-04-03T14:10:48;8.30;55.40
37786;DHT22;23625;48.784;9.336;2023-04-03T14:13:17;8.40;55.60
37786;DHT22;23625;48.784;9.336;2023-04-03T14:15:43;8.40;55.80
37786;DHT22;23625;48.784;9.336;2023-04-03T14:18:13;8.70;55.20
37786;DHT22;23625;48.784;9.336;2023-04-03T14:20:39;9.00;54.60
37786;DHT22;23625;48.784;9.336;2023-04-03T14:23:05;9.40;54.50
37786;DHT22;23625;48.784;9.336;2023-04-03T14:25:31;9.60;53.70
37786;DHT22;23625;48.784;9.336;2023-04-03T14:27:57;9.40;53.50
37786;DHT22;23625;48.784;9.336;2023-04-03T14:30:27;9.30;54.50
37786;DHT22;23625;48.784;9.336;2023-04-03T14:32:53;9.00;55.10
37786;DHT22;23625;48.784;9.336;2023-04-03T14:35:20;8.70;55.40
37786;DHT22;23625;48.784;9.336;2023-04-03T14:37:51;8.50;56.00
37786;DHT22;23625;48.784;9.336;2023-04-03T14:40:21;8.40;55.80
37786;DHT22;23625;48.784;9.336;2023-04-03T14:42:47;8.30;56.20
37786;DHT22;23625;48.784;9.336;2023-04-03T14:45:15;8.20;56.60
37786;DHT22;23625;48.784;9.336;2023-04-03T14:47:45;8.20;56.50
37786;DHT22;23625;48.784;9.336;2023-04-03T14:50:19;8.20;56.50
37786;DHT22;23625;48.784;9.336;2023-04-03T14:52:47;8.20;55.90
37786;DHT22;23625;48.784;9.336;2023-04-03T14:55:16;8.30;56.10
37786;DHT22;23625;48.784;9.336;2023-04-03T14:57:42;8.40;55.10
37786;DHT22;23625;48.784;9.336;2023-04-03T15:00:16;8.50;54.20
37786;DHT22;23625;48.784;9.336;2023-04-03T15:02:42;9.30;54.40
37786;DHT22;23625;48.784;9.336;2023-04-03T15:05:09;8.70;53.80
37786;DHT22;23625;48.784;9.336;2023-04-03T15:07:41;8.60;53.70
37786;DHT22;23625;48.784;9.336;2023-04-03T15:12:40;8.20;53.90
37786;DHT22;23625;48.784;9.336;2023-04-03T15:15:06;8.10;54.00
37786;DHT22;23625;48.784;9.336;2023-04-03T15:17:31;8.10;54.60
37786;DHT22;23625;48.784;9.336;2023-04-03T15:19:58;8.00;54.50
37786;DHT22;23625;48.784;9.336;2023-04-03T15:22:24;8.10;54.40
37786;DHT22;23625;48.784;9.336;2023-04-03T15:24:49;8.40;54.40
37786;DHT22;23625;48.784;9.336;2023-04-03T15:27:15;8.70;53.90
37786;DHT22;23625;48.784;9.336;2023-04-03T15:29:42;8.70;53.60
37786;DHT22;23625;48.784;9.336;2023-04-03T15:32:09;8.80;53.60
37786;DHT22;23625;48.784;9.336;2023-04-03T15:34:35;8.80;52.70
37786;DHT22;23625;48.784;9.336;2023-04-03T15:37:01;9.00;52.60
37786;DHT22;23625;48.784;9.336;2023-04-03T15:39:26;9.10;52.40
37786;DHT22;23625;48.784;9.336;2023-04-03T15:41:52;9.20;52.40
37786;DHT22;23625;48.784;9.336;2023-04-03T15:44:19;9.20;52.00
37786;DHT22;23625;48.784;9.336;2023-04-03T15:46:46;9.30;51.60
37786;DHT22;23625;48.784;9.336;2023-04-03T15:49:12;9.50;51.50
37786;DHT22;23625;48.784;9.336;2023-04-03T15:51:38;9.40;50.60
37786;DHT22;23625;48.784;9.336;2023-04-03T15:54:04;9.50;49.70
37786;DHT22;23625;48.784;9.336;2023-04-03T15:56:29;9.30;48.50
37786;DHT22;23625;48.784;9.336;2023-04-03T15:58:55;9.00;48.70
37786;DHT22;23625;48.784;9.336;2023-04-03T16:01:21;8.80;48.90
37786;DHT22;23625;48.784;9.336;2023-04-03T16:03:47;8.50;49.00
37786;DHT22;23625;48.784;9.336;2023-04-03T16:06:16;8.30;49.90
37786;DHT22;23625;48.784;9.336;2023-04-03T16:08:43;8.20;50.60
37786;DHT22;23625;48.784;9.336;2023-04-03T16:11:09;8.30;50.90
37786;DHT22;23625;48.784;9.336;2023-04-03T16:13:35;8.50;50.70
37786;DHT22;23625;48.784;9.336;2023-04-03T16:16:01;8.60;50.50
37786;DHT22;23625;48.784;9.336;2023-04-03T16:18:28;8.90;49.30
37786;DHT22;23625;48.784;9.336;2023-04-03T16:20:54;8.90;49.70
37786;DHT22;23625;48.784;9.336;2023-04-03T16:23:20;9.00;49.90
37786;DHT22;23625;48.784;9.336;2023-04-03T16:25:46;8.90;49.90
37786;DHT22;23625;48.784;9.336;2023-04-03T16:28:15;8.60;50.20
37786;DHT22;23625;48.784;9.336;2023-04-03T16:30:41;8.40;51.10
37786;DHT22;23625;48.784;9.336;2023-04-03T16:33:08;8.30;51.40
37786;DHT22;23625;48.784;9.336;2023-04-03T16:35:34;8.30;51.80
37786;DHT22;23625;48.784;9.336;2023-04-03T16:38:00;8.30;51.60
37786;DHT22;23625;48.784;9.336;2023-04-03T16:40:26;8.20;51.20
37786;DHT22;23625;48.784;9.336;2023-04-03T16:42:51;8.20;51.50
37786;DHT22;23625;48.784;9.336;2023-04-03T16:45:17;8.10;52.30
37786;DHT22;23625;48.784;9.336;2023-04-03T16:47:43;8.00;52.50
37786;DHT22;23625;48.784;9.336;2023-04-03T16:50:09;8.00;52.80
37786;DHT22;23625;48.784;9.336;2023-04-03T16:52:34;7.90;52.90
37786;DHT22;23625;48.784;9.336;2023-04-03T16:55:00;7.80;53.20
37786;DHT22;23625;48.784;9.336;2023-04-03T16:57:26;7.80;53.30
37786;DHT22;23625;48.784;9.336;2023-04-03T16:59:52;7.70;53.20
37786;DHT22;23625;48.784;9.336;2023-04-03T17:02:18;7.60;53.50
37786;DHT22;23625;48.784;9.336;2023-04-03T17:04:44;7.60;53.80
37786;DHT22;23625;48.784;9.336;2023-04-03T17:07:09;7.50;54.40
37786;DHT22;23625;48.784;9.336;2023-04-03T17:09:35;7.40;53.90
37786;DHT22;23625;48.784;9.336;2023-04-03T17:12:01;7.30;53.40
37786;DHT22;23625;48.784;9.336;2023-04-03T17:14:26;7.30;53.40
37786;DHT22;23625;48.784;9.336;2023-04-03T17:16:52;7.20;53.70
37786;DHT22;23625;48.784;9.336;2023-04-03T17:19:18;7.20;53.70
37786;DHT22;23625;48.784;9.336;2023-04-03T17:21:44;7.10;54.10
37786;DHT22;23625;48.784;9.336;2023-04-03T17:24:12;7.10;54.60
37786;DHT22;23625;48.784;9.336;2023-04-03T17:26:39;7.10;55.00
37786;DHT22;23625;48.784;9.336;2023-04-03T17:29:05;7.00;55.80
37786;DHT22;23625;48.784;9.336;2023-04-03T17:31:31;7.00;56.00
37786;DHT22;23625;48.784;9.336;2023-04-03T17:33:57;7.00;56.20
37786;DHT22;23625;48.784;9.336;2023-04-03T17:36:29;7.00;56.20
37786;DHT22;23625;48.784;9.336;2023-04-03T17:38:55;7.00;56.80